Pretty Hana — DSQJ5 — position and weather

sailwx.info

Track history (hours):
 
Tides and Currents Weather Stations Pressure Air Temp Water Temp Dewpoint Dewpoint Depression Visibility Wind Speed Wind Dir Waves Ship Positions

Pretty Hana

Last reported at 2014-Jul-28 15:24 UTC. Time now 2014-Jul-28 20:32 UTC.
Position N 35°04' E 129°02'.

Length 65 m; draft 4.5 m.

Type: Tanker. MMSI: 441600000.

Date/timePositionNaut miles runAvg speedWind from/ knotsBaromVisibWave heightAir tempDewpointWater temp
2014-Jul-28 15:24N 35°04' E 129°02'1 0.7
2014-Jul-28 14:23N 35°04' E 129°02'0 0.0
2014-Jul-28 12:26N 35°04' E 129°02'  
2014-Jul-25 10:22N 34°56' E 139°26'7 8.6
2014-Jul-25 09:33N 35°00' E 139°32'1010.0
2014-Jul-25 08:33N 35°07' E 139°42'10 9.6
2014-Jul-25 07:33N 35°15' E 139°46'10 9.6
2014-Jul-25 06:33N 35°25' E 139°43'1010.4
2014-Jul-25 05:33N 35°31' E 139°54'8 7.6
2014-Jul-25 04:32N 35°32' E 140°03'0 0.0
2014-Jul-25 03:29N 35°32' E 140°03'0 0.0
2014-Jul-25 02:29N 35°32' E 140°03'0 0.0
2014-Jul-25 01:29N 35°32' E 140°03'0 0.0
2014-Jul-25 00:32N 35°32' E 140°03'0 0.0
2014-Jul-24 23:29N 35°32' E 140°03'1 1.1
2014-Jul-24 22:32N 35°33' E 140°03'0 0.0
2014-Jul-24 21:29N 35°33' E 140°03'0 0.0
2014-Jul-24 20:32N 35°33' E 140°03'0 0.0
2014-Jul-24 19:29N 35°33' E 140°03'0 0.0
2014-Jul-24 18:32N 35°33' E 140°03'0 0.0
2014-Jul-24 17:29N 35°33' E 140°03'8 9.1
2014-Jul-24 16:33N 35°30' E 139°54'1110.9
2014-Jul-24 15:33N 35°22' E 139°45'1010.4
2014-Jul-24 14:33N 35°11' E 139°47'1110.5
2014-Jul-24 13:33N 35°01' E 139°43'10 9.5
2014-Jul-24 12:31N 34°51' E 139°46'3 0.8
2014-Jul-24 09:29N 34°50' E 139°43'1011.0
2014-Jul-24 08:33N 35°01' E 139°43'1111.1
2014-Jul-24 07:33N 35°11' E 139°46'1010.2
2014-Jul-24 06:34N 35°21' E 139°42'9 8.8
2014-Jul-24 05:33N 35°28' E 139°49'1111.3
2014-Jul-24 04:33N 35°33' E 140°01'4 3.7
2014-Jul-24 03:29N 35°32' E 140°06'0 0.0
2014-Jul-24 02:26N 35°32' E 140°06'0 0.0
2014-Jul-24 01:32N 35°32' E 140°06'0 0.0
2014-Jul-24 00:29N 35°32' E 140°06'0 0.1
2014-Jul-23 23:32N 35°32' E 140°06'2 2.2
2014-Jul-23 22:29N 35°34' E 140°04'0 0.0
2014-Jul-23 21:32N 35°34' E 140°04'0 0.0
2014-Jul-23 20:32N 35°34' E 140°04'0 0.0
2014-Jul-23 19:29N 35°34' E 140°04'0 0.0
2014-Jul-23 18:32N 35°34' E 140°04'3 2.6
2014-Jul-23 17:33N 35°34' E 140°01'1111.1
2014-Jul-23 16:33N 35°27' E 139°50'1010.5
2014-Jul-23 15:33N 35°17' E 139°45'1110.6
2014-Jul-23 14:33N 35°07' E 139°45'1111.0
2014-Jul-23 13:33N 34°59' E 139°35'  
Track history (hours):
 
Tides and Currents Weather Stations Pressure Air Temp Water Temp Dewpoint Dewpoint Depression Visibility Wind Speed Wind Dir Waves Ship Positions

Pretty Hana

Last reported at 2014-Jul-28 15:24 UTC. Time now 2014-Jul-28 20:32 UTC.
Position N 35°04' E 129°02'.

Length 65 m; draft 4.5 m.

Type: Tanker. MMSI: 441600000.

Date/timePositionNaut miles runAvg speedWind from/ knotsBaromVisibWave heightAir tempDewpointWater temp
2014-Jul-28 15:24N 35°04' E 129°02'1 0.7
2014-Jul-28 14:23N 35°04' E 129°02'0 0.0
2014-Jul-28 12:26N 35°04' E 129°02'  
2014-Jul-25 10:22N 34°56' E 139°26'7 8.6
2014-Jul-25 09:33N 35°00' E 139°32'1010.0
2014-Jul-25 08:33N 35°07' E 139°42'10 9.6
2014-Jul-25 07:33N 35°15' E 139°46'10 9.6
2014-Jul-25 06:33N 35°25' E 139°43'1010.4
2014-Jul-25 05:33N 35°31' E 139°54'8 7.6
2014-Jul-25 04:32N 35°32' E 140°03'0 0.0
2014-Jul-25 03:29N 35°32' E 140°03'0 0.0
2014-Jul-25 02:29N 35°32' E 140°03'0 0.0
2014-Jul-25 01:29N 35°32' E 140°03'0 0.0
2014-Jul-25 00:32N 35°32' E 140°03'0 0.0
2014-Jul-24 23:29N 35°32' E 140°03'1 1.1
2014-Jul-24 22:32N 35°33' E 140°03'0 0.0
2014-Jul-24 21:29N 35°33' E 140°03'0 0.0
2014-Jul-24 20:32N 35°33' E 140°03'0 0.0
2014-Jul-24 19:29N 35°33' E 140°03'0 0.0
2014-Jul-24 18:32N 35°33' E 140°03'0 0.0
2014-Jul-24 17:29N 35°33' E 140°03'8 9.1
2014-Jul-24 16:33N 35°30' E 139°54'1110.9
2014-Jul-24 15:33N 35°22' E 139°45'1010.4
2014-Jul-24 14:33N 35°11' E 139°47'1110.5
2014-Jul-24 13:33N 35°01' E 139°43'10 9.5
2014-Jul-24 12:31N 34°51' E 139°46'3 0.8
2014-Jul-24 09:29N 34°50' E 139°43'1011.0
2014-Jul-24 08:33N 35°01' E 139°43'1111.1
2014-Jul-24 07:33N 35°11' E 139°46'1010.2
2014-Jul-24 06:34N 35°21' E 139°42'9 8.8
2014-Jul-24 05:33N 35°28' E 139°49'1111.3
2014-Jul-24 04:33N 35°33' E 140°01'4 3.7
2014-Jul-24 03:29N 35°32' E 140°06'0 0.0
2014-Jul-24 02:26N 35°32' E 140°06'0 0.0
2014-Jul-24 01:32N 35°32' E 140°06'0 0.0
2014-Jul-24 00:29N 35°32' E 140°06'0 0.1
2014-Jul-23 23:32N 35°32' E 140°06'2 2.2
2014-Jul-23 22:29N 35°34' E 140°04'0 0.0
2014-Jul-23 21:32N 35°34' E 140°04'0 0.0
2014-Jul-23 20:32N 35°34' E 140°04'0 0.0
2014-Jul-23 19:29N 35°34' E 140°04'0 0.0
2014-Jul-23 18:32N 35°34' E 140°04'3 2.6
2014-Jul-23 17:33N 35°34' E 140°01'1111.1
2014-Jul-23 16:33N 35°27' E 139°50'1010.5
2014-Jul-23 15:33N 35°17' E 139°45'1110.6
2014-Jul-23 14:33N 35°07' E 139°45'1111.0
2014-Jul-23 13:33N 34°59' E 139°35'  

Dump ship's entire track history